Time;durP1;ratioP1;P1;durP2;ratioP2;P2;SDS_P1;SDS_P2;PMS_P1;PMS_P2;Temp;Humidity;BMP_temperature;BMP_pressure;BME280_temperature;BME280_humidity;BME280_pressure;Samples;Min_cycle;Max_cycle;Signal;HPM_P1;HPM_P2
2022/06/12 00:00:54;;;;;;;13.63;4.57;;;;;;;;;;5072334;28;20855;-75
2022/06/12 00:03:23;;;;;;;6.87;4.07;;;;;;;;;;5075337;28;20229;-74
2022/06/12 00:05:51;;;;;;;9.37;4.47;;;;;;;;;;5072903;28;20727;-75
2022/06/12 00:08:19;;;;;;;7.50;4.20;;;;;;;;;;5077697;28;20202;-75
2022/06/12 00:10:47;;;;;;;7.83;4.50;;;;;;;;;;5075360;28;20224;-75
2022/06/12 00:13:19;;;;;;;9.40;4.27;;;;;;;;;;5076570;28;20752;-75
2022/06/12 00:15:47;;;;;;;5.57;4.00;;;;;;;;;;5076224;28;20289;-75
2022/06/12 00:18:14;;;;;;;6.83;4.20;;;;;;;;;;5075268;28;20210;-75
2022/06/12 00:20:41;;;;;;;5.13;3.97;;;;;;;;;;5076047;28;20325;-74
2022/06/12 00:23:10;;;;;;;11.43;4.57;;;;;;;;;;5077111;28;20248;-75
2022/06/12 00:25:37;;;;;;;9.43;4.50;;;;;;;;;;5074999;28;20288;-75
2022/06/12 00:28:06;;;;;;;7.90;4.60;;;;;;;;;;5076616;28;20208;-75
2022/06/12 00:30:35;;;;;;;7.90;4.20;;;;;;;;;;5077816;28;20221;-75
2022/06/12 00:33:02;;;;;;;6.97;4.50;;;;;;;;;;5075229;28;20214;-75
2022/06/12 00:35:32;;;;;;;6.57;3.93;;;;;;;;;;5074130;28;20216;-75
2022/06/12 00:37:59;;;;;;;7.23;3.93;;;;;;;;;;5078996;28;20650;-74
2022/06/12 00:40:27;;;;;;;6.47;3.97;;;;;;;;;;5078177;28;20316;-74
2022/06/12 00:42:55;;;;;;;7.33;4.30;;;;;;;;;;5077091;28;20241;-75
2022/06/12 00:45:36;;;;;;;10.70;4.97;;;;;;;;;;5074656;28;20202;-74
2022/06/12 00:48:06;;;;;;;7.90;4.37;;;;;;;;;;5077541;28;20209;-75
2022/06/12 00:50:35;;;;;;;6.63;4.37;;;;;;;;;;5076886;28;20220;-75
2022/06/12 00:53:02;;;;;;;7.40;4.10;;;;;;;;;;5075613;28;20245;-75
2022/06/12 00:55:33;;;;;;;6.23;4.20;;;;;;;;;;5074225;28;21280;-75
2022/06/12 00:58:02;;;;;;;6.23;3.90;;;;;;;;;;5075086;28;20216;-74
2022/06/12 01:00:31;;;;;;;7.83;4.00;;;;;;;;;;5074196;28;20467;-75
2022/06/12 01:02:59;;;;;;;7.67;4.30;;;;;;;;;;5077841;28;20316;-74
2022/06/12 01:08:15;;;;;;;8.17;4.60;;;;;;;;;;5074496;28;20213;-75
2022/06/12 01:10:43;;;;;;;9.17;4.23;;;;;;;;;;5075169;28;20222;-75
2022/06/12 01:13:13;;;;;;;6.00;4.23;;;;;;;;;;5074496;28;20240;-74
2022/06/12 01:15:42;;;;;;;6.30;3.80;;;;;;;;;;5073344;28;20248;-75
2022/06/12 01:18:11;;;;;;;7.83;4.07;;;;;;;;;;5080804;28;20681;-75
2022/06/12 01:20:43;;;;;;;8.60;4.23;;;;;;;;;;5080381;28;20498;-75
2022/06/12 01:23:27;;;;;;;6.67;4.23;;;;;;;;;;5076825;28;20252;-75
2022/06/12 01:26:19;;;;;;;7.73;4.33;;;;;;;;;;5076153;28;20237;-75
2022/06/12 01:28:50;;;;;;;11.63;4.17;;;;;;;;;;5074771;28;20648;-75
2022/06/12 01:31:23;;;;;;;9.67;4.50;;;;;;;;;;5076702;28;20224;-75
2022/06/12 01:33:58;;;;;;;7.07;4.53;;;;;;;;;;5076804;28;20236;-75
2022/06/12 01:36:31;;;;;;;9.67;4.97;;;;;;;;;;5075819;28;20209;-75
2022/06/12 01:39:03;;;;;;;6.07;4.93;;;;;;;;;;5078916;28;20193;-75
2022/06/12 01:41:34;;;;;;;8.50;5.30;;;;;;;;;;5076754;28;20218;-75
2022/06/12 01:44:09;;;;;;;9.87;5.33;;;;;;;;;;5077206;28;20320;-75
2022/06/12 01:46:41;;;;;;;7.93;5.40;;;;;;;;;;5080257;28;20209;-76
2022/06/12 01:49:13;;;;;;;8.23;5.17;;;;;;;;;;5077893;28;20203;-75
2022/06/12 01:51:43;;;;;;;11.70;5.27;;;;;;;;;;5078527;28;20246;-76
2022/06/12 01:54:17;;;;;;;9.53;5.53;;;;;;;;;;5077680;28;20210;-75
2022/06/12 01:56:48;;;;;;;10.60;5.27;;;;;;;;;;5076408;28;20287;-76
2022/06/12 01:59:18;;;;;;;7.00;4.90;;;;;;;;;;5074184;28;20247;-75
2022/06/12 02:01:51;;;;;;;6.87;4.73;;;;;;;;;;5081198;28;20225;-75
2022/06/12 02:04:21;;;;;;;8.93;5.13;;;;;;;;;;5078426;28;20297;-74
2022/06/12 02:06:52;;;;;;;8.17;5.40;;;;;;;;;;5076486;28;20209;-75
2022/06/12 02:09:23;;;;;;;9.63;5.33;;;;;;;;;;5078658;28;20288;-75
2022/06/12 02:14:41;;;;;;;9.80;5.57;;;;;;;;;;5078885;28;20209;-75
2022/06/12 02:17:11;;;;;;;7.53;5.53;;;;;;;;;;5075212;28;20759;-75
2022/06/12 02:19:40;;;;;;;9.13;5.13;;;;;;;;;;5075778;28;20246;-75
2022/06/12 02:22:09;;;;;;;9.97;5.10;;;;;;;;;;5077127;28;20286;-75
2022/06/12 02:24:39;;;;;;;7.00;4.97;;;;;;;;;;5074437;28;20212;-74
2022/06/12 02:27:08;;;;;;;5.80;4.70;;;;;;;;;;5074718;28;20660;-75
2022/06/12 02:29:38;;;;;;;10.57;4.73;;;;;;;;;;5077473;28;20201;-76
2022/06/12 02:32:09;;;;;;;6.90;5.00;;;;;;;;;;5060951;28;20701;-74
2022/06/12 02:34:39;;;;;;;9.67;5.33;;;;;;;;;;5073706;28;20213;-76
2022/06/12 02:37:09;;;;;;;12.70;4.77;;;;;;;;;;5075430;28;20213;-75
2022/06/12 02:39:39;;;;;;;11.40;5.30;;;;;;;;;;5071931;28;20297;-75
2022/06/12 02:42:09;;;;;;;8.77;5.27;;;;;;;;;;5075300;28;20735;-75
2022/06/12 02:44:40;;;;;;;6.60;4.50;;;;;;;;;;5065693;28;20205;-75
2022/06/12 02:47:10;;;;;;;10.17;4.87;;;;;;;;;;5075415;28;20693;-75
2022/06/12 02:49:39;;;;;;;8.37;4.97;;;;;;;;;;5076858;28;20668;-75
2022/06/12 02:52:09;;;;;;;6.73;4.40;;;;;;;;;;5076811;28;20293;-75
2022/06/12 02:54:39;;;;;;;7.33;5.13;;;;;;;;;;5076795;28;20697;-75
2022/06/12 02:57:10;;;;;;;8.60;5.23;;;;;;;;;;5076892;28;20617;-75
2022/06/12 02:59:42;;;;;;;8.30;4.37;;;;;;;;;;5076915;28;20697;-75
2022/06/12 03:02:13;;;;;;;9.63;4.43;;;;;;;;;;5075592;28;20263;-75
2022/06/12 03:04:42;;;;;;;9.67;4.70;;;;;;;;;;5073286;28;20198;-75
2022/06/12 03:07:09;;;;;;;10.13;4.43;;;;;;;;;;5073154;28;20297;-75
2022/06/12 03:09:37;;;;;;;6.87;4.00;;;;;;;;;;5075962;28;20289;-76
2022/06/12 03:12:05;;;;;;;7.67;4.80;;;;;;;;;;5073435;28;20206;-75
2022/06/12 03:14:33;;;;;;;6.67;4.40;;;;;;;;;;5073635;28;20293;-75
2022/06/12 03:17:00;;;;;;;9.77;4.57;;;;;;;;;;5075251;28;20296;-74
2022/06/12 03:19:30;;;;;;;8.27;4.37;;;;;;;;;;5076275;28;20650;-75
2022/06/12 03:22:05;;;;;;;6.43;4.20;;;;;;;;;;5075900;28;20285;-75
2022/06/12 03:24:40;;;;;;;8.03;4.70;;;;;;;;;;5075293;28;20206;-75
2022/06/12 03:27:22;;;;;;;9.03;5.13;;;;;;;;;;5074268;28;20209;-74
2022/06/12 03:29:55;;;;;;;6.07;4.20;;;;;;;;;;5070230;28;20218;-75
2022/06/12 03:32:25;;;;;;;6.07;4.67;;;;;;;;;;5072623;28;20339;-75
2022/06/12 03:34:56;;;;;;;9.10;4.70;;;;;;;;;;5076586;28;20193;-75
2022/06/12 03:37:28;;;;;;;11.93;3.90;;;;;;;;;;5103480;22;20599;-84
2022/06/12 03:39:59;;;;;;;9.30;4.20;;;;;;;;;;5123593;27;21186;-82
2022/06/12 03:42:32;;;;;;;9.37;4.27;;;;;;;;;;5115478;27;20602;-82
2022/06/12 03:45:01;;;;;;;6.70;4.20;;;;;;;;;;5122628;27;20290;-84
2022/06/12 03:47:32;;;;;;;7.37;4.23;;;;;;;;;;5110768;27;20221;-85
2022/06/12 03:50:04;;;;;;;10.20;4.20;;;;;;;;;;5103270;27;20216;-83
2022/06/12 03:52:33;;;;;;;12.17;4.03;;;;;;;;;;5110492;28;20281;-83
2022/06/12 03:55:02;;;;;;;7.30;4.07;;;;;;;;;;5102916;28;20215;-83
2022/06/12 03:57:51;;;;;;;6.17;3.60;;;;;;;;;;5110830;28;20224;-85
2022/06/12 04:00:21;;;;;;;9.50;3.80;;;;;;;;;;5100042;28;20216;-84
2022/06/12 04:02:51;;;;;;;7.83;3.90;;;;;;;;;;5112656;28;20297;-82
2022/06/12 04:05:23;;;;;;;6.47;3.63;;;;;;;;;;5106930;28;20266;-85
2022/06/12 04:07:52;;;;;;;7.80;3.70;;;;;;;;;;5110026;28;20246;-82
2022/06/12 04:10:22;;;;;;;5.10;3.60;;;;;;;;;;5113821;28;20633;-83
2022/06/12 04:12:50;;;;;;;5.97;3.30;;;;;;;;;;5106346;28;20198;-84
2022/06/12 04:15:19;;;;;;;10.83;3.57;;;;;;;;;;5111525;28;20209;-83
2022/06/12 04:17:47;;;;;;;5.40;3.10;;;;;;;;;;5105839;28;20235;-83
2022/06/12 04:20:16;;;;;;;4.27;2.80;;;;;;;;;;5104898;28;20685;-82
2022/06/12 04:22:52;;;;;;;5.30;3.37;;;;;;;;;;5110326;28;20846;-83
2022/06/12 04:25:32;;;;;;;5.47;2.80;;;;;;;;;;5113175;28;20608;-82
2022/06/12 04:27:59;;;;;;;6.50;2.77;;;;;;;;;;5111148;28;20580;-83
2022/06/12 04:30:29;;;;;;;4.63;2.63;;;;;;;;;;5103693;28;20205;-84
2022/06/12 04:33:17;;;;;;;5.30;2.60;;;;;;;;;;5101080;28;20343;-83
2022/06/12 04:35:49;;;;;;;5.47;2.63;;;;;;;;;;5112094;28;20315;-84
2022/06/12 04:38:18;;;;;;;4.23;2.77;;;;;;;;;;5102103;28;20249;-81
2022/06/12 04:40:45;;;;;;;5.13;2.33;;;;;;;;;;5100684;28;20221;-82
2022/06/12 04:43:13;;;;;;;5.07;2.37;;;;;;;;;;5104861;28;20732;-82
2022/06/12 04:45:41;;;;;;;5.40;2.90;;;;;;;;;;5101872;28;20201;-82
2022/06/12 04:48:09;;;;;;;5.33;2.67;;;;;;;;;;5103211;28;20704;-83
2022/06/12 04:50:36;;;;;;;5.50;2.70;;;;;;;;;;5111774;28;20656;-82
2022/06/12 04:53:04;;;;;;;7.23;2.70;;;;;;;;;;5105171;27;20722;-83
2022/06/12 04:55:33;;;;;;;4.60;2.80;;;;;;;;;;5109726;27;20205;-82
2022/06/12 04:58:01;;;;;;;6.40;2.97;;;;;;;;;;5116194;27;20229;-83
2022/06/12 05:00:28;;;;;;;3.80;2.70;;;;;;;;;;5115631;27;20243;-83
2022/06/12 05:02:56;;;;;;;7.27;2.80;;;;;;;;;;5116791;27;20208;-83
2022/06/12 05:05:24;;;;;;;6.50;2.60;;;;;;;;;;5097702;28;20294;-82
2022/06/12 05:07:52;;;;;;;6.07;2.70;;;;;;;;;;5100837;28;20307;-83
2022/06/12 05:10:19;;;;;;;5.57;2.20;;;;;;;;;;5103405;27;20293;-82
2022/06/12 05:12:48;;;;;;;5.30;2.40;;;;;;;;;;5099733;28;20209;-84
2022/06/12 05:15:15;;;;;;;6.50;2.40;;;;;;;;;;5103723;27;20281;-83
2022/06/12 05:17:43;;;;;;;5.80;2.33;;;;;;;;;;5098196;27;20261;-83
2022/06/12 05:20:15;;;;;;;8.07;2.37;;;;;;;;;;5113422;27;20205;-82
2022/06/12 05:22:43;;;;;;;7.13;2.30;;;;;;;;;;5108646;27;20657;-82
2022/06/12 05:25:10;;;;;;;4.67;2.27;;;;;;;;;;5112588;27;20297;-82
2022/06/12 05:27:38;;;;;;;3.40;1.97;;;;;;;;;;5116490;27;20286;-83
2022/06/12 05:30:07;;;;;;;4.47;2.27;;;;;;;;;;5124077;27;20261;-82
2022/06/12 05:32:35;;;;;;;3.07;1.80;;;;;;;;;;5114189;27;20194;-81
2022/06/12 05:35:02;;;;;;;5.10;2.23;;;;;;;;;;5119990;27;20264;-80
2022/06/12 05:37:29;;;;;;;4.63;2.07;;;;;;;;;;5109734;27;20227;-81
2022/06/12 05:39:57;;;;;;;4.47;2.00;;;;;;;;;;5115669;27;20201;-80
2022/06/12 05:42:24;;;;;;;4.17;1.97;;;;;;;;;;5106901;27;20216;-79
2022/06/12 05:44:52;;;;;;;5.23;2.20;;;;;;;;;;5103567;27;20220;-80
2022/06/12 05:47:21;;;;;;;5.80;1.97;;;;;;;;;;5116218;27;20224;-79
2022/06/12 05:49:49;;;;;;;4.13;2.00;;;;;;;;;;5113727;27;20250;-81
2022/06/12 05:52:16;;;;;;;7.10;2.10;;;;;;;;;;5112482;27;20196;-79
2022/06/12 05:54:44;;;;;;;6.57;2.13;;;;;;;;;;5113870;27;20208;-81
2022/06/12 05:57:11;;;;;;;5.83;2.10;;;;;;;;;;5105690;27;20215;-81
2022/06/12 05:59:39;;;;;;;6.07;2.03;;;;;;;;;;5112160;27;20788;-81
2022/06/12 06:02:06;;;;;;;7.73;2.37;;;;;;;;;;5106659;27;20227;-80
2022/06/12 06:04:35;;;;;;;7.73;2.20;;;;;;;;;;5115350;27;20723;-80
2022/06/12 06:07:02;;;;;;;8.23;2.10;;;;;;;;;;5119885;27;20222;-80
2022/06/12 06:09:30;;;;;;;6.60;2.07;;;;;;;;;;5110130;27;20654;-81
2022/06/12 06:11:57;;;;;;;5.77;2.03;;;;;;;;;;5107714;27;20207;-81
2022/06/12 06:14:25;;;;;;;7.77;2.40;;;;;;;;;;5118932;27;20204;-79
2022/06/12 06:16:52;;;;;;;5.13;2.20;;;;;;;;;;5110003;27;20274;-80
2022/06/12 06:19:20;;;;;;;5.37;2.00;;;;;;;;;;5106050;27;20221;-80
2022/06/12 06:21:48;;;;;;;4.57;2.30;;;;;;;;;;5111660;27;20279;-81
2022/06/12 06:24:17;;;;;;;4.50;2.20;;;;;;;;;;5113302;27;20200;-80
2022/06/12 06:26:45;;;;;;;6.93;2.07;;;;;;;;;;5115055;27;20707;-81
2022/06/12 06:29:13;;;;;;;6.50;1.83;;;;;;;;;;5113224;27;20569;-82
2022/06/12 06:31:40;;;;;;;8.50;2.13;;;;;;;;;;5105436;27;20724;-83
2022/06/12 06:34:08;;;;;;;6.47;2.07;;;;;;;;;;5117365;27;20221;-81
2022/06/12 06:36:35;;;;;;;7.90;2.10;;;;;;;;;;5105245;27;20290;-81
2022/06/12 06:39:04;;;;;;;7.45;1.90;;;;;;;;;;5117705;27;20239;-81
2022/06/12 06:41:31;;;;;;;7.53;2.10;;;;;;;;;;5106672;27;20611;-81
2022/06/12 06:46:43;;;;;;;11.35;2.13;;;;;;;;;;5112606;27;20223;-82
2022/06/12 06:49:11;;;;;;;9.35;1.98;;;;;;;;;;5112372;27;20198;-82
2022/06/12 06:51:38;;;;;;;7.85;2.10;;;;;;;;;;5111154;27;20246;-82
2022/06/12 06:54:07;;;;;;;6.60;2.00;;;;;;;;;;5113005;27;20675;-82
2022/06/12 06:56:34;;;;;;;7.15;2.53;;;;;;;;;;5112391;27;20743;-83
2022/06/12 06:59:02;;;;;;;7.88;2.38;;;;;;;;;;5103416;27;20232;-82
2022/06/12 07:01:29;;;;;;;9.77;2.30;;;;;;;;;;5111671;27;20203;-81
2022/06/12 07:03:56;;;;;;;11.88;2.25;;;;;;;;;;5112523;27;20530;-81
2022/06/12 07:06:26;;;;;;;6.55;2.08;;;;;;;;;;5103782;27;20209;-82
2022/06/12 07:08:54;;;;;;;8.20;2.28;;;;;;;;;;5112409;27;20272;-82
2022/06/12 07:11:23;;;;;;;6.13;2.10;;;;;;;;;;5113708;27;20327;-83
2022/06/12 07:13:51;;;;;;;10.00;2.25;;;;;;;;;;5111599;27;20228;-82
2022/06/12 07:16:18;;;;;;;5.88;2.08;;;;;;;;;;5103446;27;20299;-84
2022/06/12 07:18:45;;;;;;;4.85;1.50;;;;;;;;;;5110929;27;20651;-82
2022/06/12 07:21:14;;;;;;;3.80;1.60;;;;;;;;;;5107334;27;20242;-83
2022/06/12 07:23:41;;;;;;;4.50;1.30;;;;;;;;;;5110566;27;20205;-82
2022/06/12 07:26:09;;;;;;;5.78;1.50;;;;;;;;;;5102537;27;20205;-84
2022/06/12 07:28:39;;;;;;;8.55;2.10;;;;;;;;;;5103244;27;20210;-82
2022/06/12 07:31:07;;;;;;;6.18;1.70;;;;;;;;;;5097356;27;20207;-82
2022/06/12 07:33:37;;;;;;;4.90;1.60;;;;;;;;;;5091860;27;20680;-83
2022/06/12 07:36:05;;;;;;;6.80;1.63;;;;;;;;;;5107738;27;20215;-84
2022/06/12 07:38:32;;;;;;;6.82;1.80;;;;;;;;;;5098729;28;20237;-85
2022/06/12 07:41:01;;;;;;;5.70;1.52;;;;;;;;;;5092303;28;20215;-82
2022/06/12 07:43:29;;;;;;;8.52;1.70;;;;;;;;;;5102448;27;20202;-84
2022/06/12 07:46:00;;;;;;;11.98;2.15;;;;;;;;;;5101089;28;20259;-82
2022/06/12 07:48:28;;;;;;;9.07;1.75;;;;;;;;;;5105255;28;20293;-83
2022/06/12 07:50:55;;;;;;;7.50;1.85;;;;;;;;;;5102692;28;20198;-85
2022/06/12 07:53:23;;;;;;;6.65;1.67;;;;;;;;;;5099495;28;20225;-83
2022/06/12 07:55:51;;;;;;;5.43;1.70;;;;;;;;;;5090867;27;20281;-82
2022/06/12 07:58:19;;;;;;;6.30;1.95;;;;;;;;;;5101214;27;20739;-84
2022/06/12 08:00:47;;;;;;;5.22;1.45;;;;;;;;;;5106429;28;20251;-83
2022/06/12 08:03:16;;;;;;;5.03;1.67;;;;;;;;;;5106159;27;20208;-85
2022/06/12 08:05:44;;;;;;;10.43;1.60;;;;;;;;;;5105575;27;20211;-82
2022/06/12 08:08:11;;;;;;;7.95;1.50;;;;;;;;;;5105328;28;20289;-83
2022/06/12 08:10:39;;;;;;;10.10;2.00;;;;;;;;;;5105929;28;20712;-80
2022/06/12 08:13:10;;;;;;;4.83;1.50;;;;;;;;;;5104698;28;20221;-83
2022/06/12 08:15:38;;;;;;;9.77;1.80;;;;;;;;;;5106890;28;20728;-82
2022/06/12 08:18:05;;;;;;;4.53;1.67;;;;;;;;;;5107129;28;20318;-82
2022/06/12 08:20:36;;;;;;;6.57;1.50;;;;;;;;;;5109925;28;20320;-83
2022/06/12 08:23:05;;;;;;;5.83;1.60;;;;;;;;;;5109408;28;20281;-83
2022/06/12 08:25:34;;;;;;;5.87;1.60;;;;;;;;;;5106224;28;20205;-85
2022/06/12 08:28:01;;;;;;;5.23;1.50;;;;;;;;;;5117791;27;20292;-84
2022/06/12 08:30:32;;;;;;;3.47;1.30;;;;;;;;;;5120007;27;20200;-83
2022/06/12 08:32:59;;;;;;;5.13;1.33;;;;;;;;;;5127030;27;20250;-80
2022/06/12 08:35:28;;;;;;;7.23;1.73;;;;;;;;;;5127654;27;20560;-82
2022/06/12 08:37:57;;;;;;;6.27;1.60;;;;;;;;;;5108870;28;20239;-82
2022/06/12 08:40:29;;;;;;;4.77;1.27;;;;;;;;;;5115641;27;20202;-82
2022/06/12 08:43:00;;;;;;;5.33;1.90;;;;;;;;;;5107271;27;20574;-82
2022/06/12 08:45:30;;;;;;;6.10;1.70;;;;;;;;;;5104622;27;20198;-82
2022/06/12 08:48:02;;;;;;;7.30;1.70;;;;;;;;;;5111916;27;20229;-82
2022/06/12 08:50:33;;;;;;;4.03;1.70;;;;;;;;;;5107216;27;20218;-82
2022/06/12 08:53:07;;;;;;;6.97;1.77;;;;;;;;;;5107214;27;20224;-80
2022/06/12 08:55:37;;;;;;;5.27;1.60;;;;;;;;;;5093764;27;20194;-80
2022/06/12 08:58:08;;;;;;;5.83;1.63;;;;;;;;;;5105570;27;21791;-80
2022/06/12 09:00:36;;;;;;;9.13;1.77;;;;;;;;;;5102739;27;20212;-86
2022/06/12 09:03:04;;;;;;;9.10;1.40;;;;;;;;;;5107551;27;20200;-80
2022/06/12 09:05:36;;;;;;;7.20;1.93;;;;;;;;;;5111891;27;20240;-82
2022/06/12 09:08:10;;;;;;;6.93;1.90;;;;;;;;;;5113209;27;20217;-84
2022/06/12 09:10:41;;;;;;;5.77;1.47;;;;;;;;;;5114357;27;20664;-83
2022/06/12 09:13:15;;;;;;;4.20;1.70;;;;;;;;;;5112838;27;20301;-82
2022/06/12 09:15:45;;;;;;;5.87;1.63;;;;;;;;;;5115064;27;20207;-84
2022/06/12 09:18:18;;;;;;;4.43;1.63;;;;;;;;;;5110274;27;20220;-80
2022/06/12 09:20:49;;;;;;;4.80;1.60;;;;;;;;;;5107743;27;20284;-82
2022/06/12 09:23:26;;;;;;;6.87;1.70;;;;;;;;;;5116409;27;20189;-81
2022/06/12 09:25:57;;;;;;;3.60;1.30;;;;;;;;;;5112910;27;20197;-80
2022/06/12 09:28:29;;;;;;;5.83;1.57;;;;;;;;;;5113439;27;20313;-80
2022/06/12 09:30:59;;;;;;;5.13;1.57;;;;;;;;;;5118754;27;20197;-82
2022/06/12 09:33:30;;;;;;;6.10;1.70;;;;;;;;;;5122560;27;20235;-80
2022/06/12 09:36:03;;;;;;;6.97;1.40;;;;;;;;;;5112300;27;20284;-82
2022/06/12 09:38:38;;;;;;;6.77;1.50;;;;;;;;;;5122925;22;20218;-82
2022/06/12 09:41:14;;;;;;;4.17;1.20;;;;;;;;;;5109596;28;20224;-81
2022/06/12 09:43:43;;;;;;;4.70;1.50;;;;;;;;;;5110330;28;20739;-81
2022/06/12 09:46:19;;;;;;;6.37;1.60;;;;;;;;;;5112399;28;20274;-82
2022/06/12 09:48:56;;;;;;;4.27;1.57;;;;;;;;;;5098099;28;20308;-84
2022/06/12 09:51:27;;;;;;;5.83;1.60;;;;;;;;;;5088646;28;20206;-82
2022/06/12 09:54:16;;;;;;;5.87;1.43;;;;;;;;;;5091562;28;20226;-80
2022/06/12 09:56:45;;;;;;;6.50;1.63;;;;;;;;;;5089270;28;20209;-80
2022/06/12 09:59:15;;;;;;;6.00;1.37;;;;;;;;;;5088586;28;20282;-83
2022/06/12 10:01:45;;;;;;;6.50;1.30;;;;;;;;;;5089138;28;20297;-82
2022/06/12 10:04:15;;;;;;;7.03;1.60;;;;;;;;;;5096137;28;20753;-81
2022/06/12 10:06:43;;;;;;;5.83;1.53;;;;;;;;;;5092380;28;20307;-83
2022/06/12 10:09:14;;;;;;;9.63;1.43;;;;;;;;;;5091109;28;20278;-82
2022/06/12 10:11:43;;;;;;;4.40;1.30;;;;;;;;;;5094651;28;20758;-81
2022/06/12 10:14:14;;;;;;;4.57;1.47;;;;;;;;;;5096472;28;20270;-82
2022/06/12 10:16:43;;;;;;;4.73;1.50;;;;;;;;;;5097018;28;20203;-81
2022/06/12 10:19:12;;;;;;;5.23;1.40;;;;;;;;;;5085767;28;20317;-82
2022/06/12 10:21:41;;;;;;;6.10;1.57;;;;;;;;;;5086476;28;20288;-81
2022/06/12 10:24:09;;;;;;;5.97;1.70;;;;;;;;;;5088878;28;20194;-81
2022/06/12 10:26:37;;;;;;;3.53;1.40;;;;;;;;;;5086731;28;20201;-82
2022/06/12 10:29:06;;;;;;;4.80;1.47;;;;;;;;;;5087270;28;20233;-81
2022/06/12 10:31:35;;;;;;;12.13;5.17;;;;;;;;;;5083985;28;20210;-83
2022/06/12 10:34:16;;;;;;;5.73;1.63;;;;;;;;;;5085783;28;20229;-81
2022/06/12 10:36:43;;;;;;;6.63;1.70;;;;;;;;;;5083736;28;20221;-81
2022/06/12 10:39:14;;;;;;;13.77;8.53;;;;;;;;;;5092088;28;20242;-80
2022/06/12 10:41:47;;;;;;;6.63;1.80;;;;;;;;;;5093725;28;20656;-80
2022/06/12 10:44:31;;;;;;;7.77;2.00;;;;;;;;;;5090912;28;20261;-80
2022/06/12 10:47:09;;;;;;;4.83;1.60;;;;;;;;;;5086273;28;20273;-80
2022/06/12 10:49:36;;;;;;;5.90;1.70;;;;;;;;;;5092851;28;20744;-83
2022/06/12 10:52:06;;;;;;;5.70;1.70;;;;;;;;;;5093184;28;20297;-82
2022/06/12 10:54:34;;;;;;;5.40;1.63;;;;;;;;;;5089636;28;20227;-81
2022/06/12 10:57:05;;;;;;;3.80;1.40;;;;;;;;;;5087365;28;20210;-80
2022/06/12 10:59:36;;;;;;;7.13;1.50;;;;;;;;;;5091990;28;20204;-82
2022/06/12 11:02:22;;;;;;;5.40;1.23;;;;;;;;;;5088158;28;20201;-80
2022/06/12 11:04:57;;;;;;;4.67;1.33;;;;;;;;;;5090914;28;20580;-82
2022/06/12 11:07:28;;;;;;;5.60;1.70;;;;;;;;;;5086219;28;20228;-85
2022/06/12 11:10:01;;;;;;;7.27;1.70;;;;;;;;;;5088190;28;20241;-82
2022/06/12 11:12:52;;;;;;;7.63;1.60;;;;;;;;;;5091353;28;20262;-83
2022/06/12 11:15:30;;;;;;;8.10;1.97;;;;;;;;;;5070626;28;20277;-80
2022/06/12 11:18:01;;;;;;;4.90;1.83;;;;;;;;;;5089513;28;20222;-80
2022/06/12 11:20:36;;;;;;;6.17;1.50;;;;;;;;;;5090394;28;20306;-80
2022/06/12 11:23:15;;;;;;;7.43;1.70;;;;;;;;;;5095365;28;20209;-82
2022/06/12 11:25:51;;;;;;;6.90;1.40;;;;;;;;;;5087726;28;20266;-83
2022/06/12 11:28:25;;;;;;;4.30;1.60;;;;;;;;;;5090671;28;20316;-81
2022/06/12 11:30:56;;;;;;;4.57;1.73;;;;;;;;;;5088457;28;20208;-82
2022/06/12 11:33:30;;;;;;;5.33;1.77;;;;;;;;;;5087869;28;20224;-81
2022/06/12 11:35:59;;;;;;;5.93;1.60;;;;;;;;;;5088847;28;20268;-82
2022/06/12 11:38:36;;;;;;;7.53;2.03;;;;;;;;;;5085707;28;21270;-82
2022/06/12 11:41:06;;;;;;;3.87;1.43;;;;;;;;;;5088146;28;20298;-81
2022/06/12 11:43:35;;;;;;;5.17;1.60;;;;;;;;;;5091192;28;20228;-82
2022/06/12 11:46:20;;;;;;;4.63;1.40;;;;;;;;;;5087678;28;20300;-82
2022/06/12 11:49:03;;;;;;;4.80;1.40;;;;;;;;;;5087245;28;20308;-82
2022/06/12 11:51:36;;;;;;;7.03;1.40;;;;;;;;;;5085772;28;20287;-80
2022/06/12 11:54:10;;;;;;;2.40;1.00;;;;;;;;;;5087586;28;20229;-80
2022/06/12 11:56:41;;;;;;;5.47;0.90;;;;;;;;;;5084366;28;20241;-80
2022/06/12 11:59:16;;;;;;;4.13;1.30;;;;;;;;;;5088400;28;20225;-81
2022/06/12 12:01:48;;;;;;;2.87;0.83;;;;;;;;;;5085145;28;20199;-81
2022/06/12 12:04:39;;;;;;;3.47;0.87;;;;;;;;;;5089828;28;20237;-81
2022/06/12 12:07:21;;;;;;;4.20;0.87;;;;;;;;;;5087298;28;20211;-81
2022/06/12 12:09:54;;;;;;;3.43;1.10;;;;;;;;;;5093042;28;20285;-83
2022/06/12 12:12:24;;;;;;;12.13;1.20;;;;;;;;;;5089322;28;20208;-81
2022/06/12 12:14:53;;;;;;;2.93;1.10;;;;;;;;;;5089644;28;20208;-82
2022/06/12 12:17:23;;;;;;;3.27;0.97;;;;;;;;;;5086766;28;20224;-82
2022/06/12 12:19:52;;;;;;;2.77;1.10;;;;;;;;;;5084477;28;20266;-83
2022/06/12 12:22:22;;;;;;;3.47;1.03;;;;;;;;;;5087923;28;20274;-84
2022/06/12 12:24:50;;;;;;;3.27;1.10;;;;;;;;;;5088514;28;20199;-82
2022/06/12 12:27:22;;;;;;;3.27;0.97;;;;;;;;;;5087906;28;20383;-82
2022/06/12 12:29:49;;;;;;;4.27;1.03;;;;;;;;;;5086715;28;20214;-81
2022/06/12 12:32:17;;;;;;;5.13;1.20;;;;;;;;;;5087362;28;20681;-83
2022/06/12 12:34:46;;;;;;;5.00;1.20;;;;;;;;;;5080627;28;20226;-82
2022/06/12 12:43:04;;;;;;;4.83;1.20;;;;;;;;;;5046256;28;20222;-82
2022/06/12 12:45:33;;;;;;;6.50;1.30;;;;;;;;;;5083584;28;20280;-82
2022/06/12 12:48:00;;;;;;;6.90;1.13;;;;;;;;;;5081626;28;20222;-81
2022/06/12 12:50:30;;;;;;;3.70;1.17;;;;;;;;;;5084187;28;20294;-83
2022/06/12 12:52:59;;;;;;;4.70;1.10;;;;;;;;;;5079381;28;20300;-83
2022/06/12 12:55:28;;;;;;;3.20;0.87;;;;;;;;;;5080568;28;20276;-82
2022/06/12 12:57:56;;;;;;;5.60;1.20;;;;;;;;;;5081500;28;20257;-83
2022/06/12 13:00:31;;;;;;;5.73;1.23;;;;;;;;;;5086927;28;20218;-81
2022/06/12 13:03:00;;;;;;;6.73;1.30;;;;;;;;;;5086655;28;20614;-82
2022/06/12 13:05:36;;;;;;;5.23;1.00;;;;;;;;;;5085217;28;20316;-81
2022/06/12 13:08:11;;;;;;;4.63;1.23;;;;;;;;;;5090049;28;20230;-81
2022/06/12 13:10:44;;;;;;;4.60;1.30;;;;;;;;;;5087660;28;20324;-82
2022/06/12 13:13:19;;;;;;;5.80;1.60;;;;;;;;;;5081112;28;20223;-83
2022/06/12 13:15:47;;;;;;;5.07;1.10;;;;;;;;;;5091621;28;20260;-85
2022/06/12 13:18:22;;;;;;;4.67;1.30;;;;;;;;;;5094221;28;20835;-85
2022/06/12 13:20:56;;;;;;;2.43;1.20;;;;;;;;;;5100528;28;20194;-82
2022/06/12 13:23:40;;;;;;;5.63;1.30;;;;;;;;;;5096030;28;20231;-83
2022/06/12 13:26:08;;;;;;;4.03;1.30;;;;;;;;;;5087899;28;20236;-84
2022/06/12 13:28:37;;;;;;;6.80;1.23;;;;;;;;;;5089365;28;20229;-85
2022/06/12 13:31:05;;;;;;;4.63;1.17;;;;;;;;;;5091780;28;20263;-81
2022/06/12 13:33:33;;;;;;;2.83;1.10;;;;;;;;;;5090696;28;20221;-83
2022/06/12 13:36:03;;;;;;;5.07;1.27;;;;;;;;;;5095364;28;20209;-84
2022/06/12 13:38:33;;;;;;;4.03;1.20;;;;;;;;;;5085219;28;20322;-83
2022/06/12 13:41:02;;;;;;;7.20;1.17;;;;;;;;;;5087635;28;20196;-83
2022/06/12 13:43:33;;;;;;;3.90;1.23;;;;;;;;;;5088062;28;20259;-81
2022/06/12 13:46:02;;;;;;;4.60;1.40;;;;;;;;;;5083742;28;20237;-81
2022/06/12 13:48:30;;;;;;;8.97;1.90;;;;;;;;;;5089086;28;20686;-83
2022/06/12 13:51:01;;;;;;;5.73;1.30;;;;;;;;;;5087382;28;20232;-82
2022/06/12 13:53:30;;;;;;;5.50;1.20;;;;;;;;;;5090051;28;20730;-83
2022/06/12 13:55:58;;;;;;;4.80;1.30;;;;;;;;;;5091210;28;20225;-83
2022/06/12 13:58:26;;;;;;;6.53;1.27;;;;;;;;;;5084180;28;20610;-83
2022/06/12 14:00:54;;;;;;;3.83;1.10;;;;;;;;;;5085940;28;20783;-83
2022/06/12 14:03:23;;;;;;;5.83;1.10;;;;;;;;;;5078297;28;20200;-81
2022/06/12 14:05:52;;;;;;;6.47;1.40;;;;;;;;;;5083259;28;20204;-81
2022/06/12 14:08:20;;;;;;;5.77;1.40;;;;;;;;;;5084874;28;20252;-81
2022/06/12 14:10:49;;;;;;;4.73;1.00;;;;;;;;;;5084882;28;20294;-82
2022/06/12 14:13:20;;;;;;;6.30;1.30;;;;;;;;;;5085459;28;20211;-82
2022/06/12 14:15:47;;;;;;;3.67;0.97;;;;;;;;;;5082431;28;20375;-82
2022/06/12 14:18:24;;;;;;;3.57;1.00;;;;;;;;;;5085024;28;20315;-81
2022/06/12 14:21:00;;;;;;;3.70;1.10;;;;;;;;;;5085137;28;20252;-81
2022/06/12 14:23:28;;;;;;;3.97;0.90;;;;;;;;;;5086449;28;20204;-81
2022/06/12 14:26:01;;;;;;;3.00;0.80;;;;;;;;;;5087306;28;20477;-83
2022/06/12 14:28:30;;;;;;;4.83;1.20;;;;;;;;;;5090531;28;20227;-81
2022/06/12 14:31:05;;;;;;;4.07;0.90;;;;;;;;;;5090597;28;20229;-83
2022/06/12 14:33:36;;;;;;;3.17;1.07;;;;;;;;;;5090216;28;20337;-82
2022/06/12 14:36:05;;;;;;;2.73;0.90;;;;;;;;;;5090153;28;20214;-81
2022/06/12 14:38:33;;;;;;;4.87;0.60;;;;;;;;;;5089406;28;20231;-83
2022/06/12 14:41:02;;;;;;;1.63;0.80;;;;;;;;;;5096527;28;20223;-81
2022/06/12 14:43:31;;;;;;;4.07;0.90;;;;;;;;;;5099066;28;20203;-84
2022/06/12 14:46:00;;;;;;;6.80;1.00;;;;;;;;;;5095546;28;20216;-83
2022/06/12 14:48:28;;;;;;;4.43;0.80;;;;;;;;;;5097980;28;20226;-84
2022/06/12 14:50:56;;;;;;;2.63;0.80;;;;;;;;;;5097127;28;20221;-85
2022/06/12 14:53:23;;;;;;;2.37;0.90;;;;;;;;;;5096564;28;20199;-85
2022/06/12 14:55:50;;;;;;;1.70;0.70;;;;;;;;;;5100285;28;20229;-85
2022/06/12 14:58:25;;;;;;;5.43;0.80;;;;;;;;;;5100696;28;20223;-83
2022/06/12 15:00:53;;;;;;;2.97;0.67;;;;;;;;;;5098219;28;20376;-84
2022/06/12 15:03:20;;;;;;;2.03;0.60;;;;;;;;;;5097435;28;20241;-84
2022/06/12 15:05:47;;;;;;;4.97;0.80;;;;;;;;;;5100768;28;20651;-84
2022/06/12 15:08:14;;;;;;;2.10;0.80;;;;;;;;;;5101861;28;20251;-84
2022/06/12 15:10:42;;;;;;;2.50;0.83;;;;;;;;;;5100972;28;20240;-84
2022/06/12 15:13:12;;;;;;;2.43;0.80;;;;;;;;;;5101540;28;20322;-83
2022/06/12 15:15:40;;;;;;;1.70;0.60;;;;;;;;;;5091245;28;20871;-83